サンフアン の空港の天気 - METARとTAF

ルイス・ムニョス・マリン国際空港 ( TJSJ / SJU ) - プエルトリコ サンフアン
飛行場実況気象(Metar)
観測時間07/16 01:56 AST (07/16 05:56 UTC)
風向・風速東 4m/s
視程10km以上
天気現象
全天の4割程度の雲 雲底高度 700m
気温26.7℃
湿度94%
気圧1017.3hPa
METARTJSJ 160556Z 10008KT 10SM SCT023 27/26 A3004 RMK AO2 RAE29 SLP173 VCSH W P0002 60002 T02670256 10278 20267 58011 $
過去の天気等 Google飛行場航空写真 Wunderground天気予報

過去48時間のMETAR

飛行場予報(TAF)
発表時間: 7/16 01:40 AST (7/16 05:40 UTC)
予報対象時間: 16日2時 AST ~ 17日2時 AST
風向・風速東 6m/s
視程10km以上
天気現象周辺でしゅう雨
全天の4割程度の雲 雲底高度 1830m
16日9時 AST から
風向・風速東 8m/s
視程10km以上
天気現象周辺でしゅう雨
少しの雲 雲底高度 910m
全天の8割程度の雲 雲底高度 1520m
16日12時 AST から
風向・風速東 9m/s
視程10km以上
天気現象周辺で雷
全天の4割程度の積乱雲 雲底高度 910m
全天の8割程度の雲 雲底高度 1520m
16日19時 AST から
風向・風速東 5m/s
視程10km以上
少しの雲 雲底高度 1830m
TJSJ 160540Z 1606/1706 09012KT P6SM VCSH SCT060
FM161330 08015KT P6SM VCSH FEW030 BKN050
FM161630 08018KT P6SM VCTS SCT030CB BKN050
FM162300 09010KT P6SM FEW060